createdAt,value
2022-08-26T00:00:51.985Z,91.29
2022-08-26T00:01:52.010Z,91.58
2022-08-26T00:03:45.199Z,91.49
2022-08-26T00:04:45.194Z,91.87
2022-08-26T00:06:38.420Z,91.67
2022-08-26T00:07:38.407Z,91.67
2022-08-26T00:09:42.495Z,91.97
2022-08-26T00:10:42.528Z,91.87
2022-08-26T00:12:46.635Z,91.77
2022-08-26T00:13:48.127Z,91.67
2022-08-26T00:15:39.681Z,92.07
2022-08-26T00:16:41.041Z,91.77
2022-08-26T00:18:43.798Z,91.77
2022-08-26T00:19:43.829Z,91.77
2022-08-26T00:21:37.602Z,92.65
2022-08-26T00:22:37.041Z,92.74
2022-08-26T00:24:41.154Z,92.25
2022-08-26T00:25:42.580Z,92.45
2022-08-26T00:27:45.238Z,92.41
2022-08-26T00:28:45.278Z,92.69
2022-08-26T00:30:38.495Z,92.60
2022-08-26T00:31:38.580Z,92.65
2022-08-26T00:33:31.727Z,92.69
2022-08-26T00:34:31.758Z,93.47
2022-08-26T00:36:24.978Z,93.47
2022-08-26T00:37:25.044Z,93.18
2022-08-26T00:39:18.198Z,93.18
2022-08-26T00:40:18.294Z,93.27
2022-08-26T00:42:11.369Z,93.08
2022-08-26T00:43:11.406Z,93.27
2022-08-26T00:45:04.397Z,93.37
2022-08-26T00:46:04.459Z,93.18
2022-08-26T00:48:08.575Z,93.37
2022-08-26T00:49:12.103Z,93.47
2022-08-26T00:51:12.676Z,93.85
2022-08-26T00:52:13.178Z,94.14
2022-08-26T00:54:16.788Z,93.66
2022-08-26T00:55:20.238Z,93.76
2022-08-26T00:57:20.940Z,93.66
2022-08-26T00:58:20.933Z,93.56
2022-08-26T01:00:25.013Z,94.24
2022-08-26T01:01:25.100Z,94.34
2022-08-26T01:03:18.227Z,93.85
2022-08-26T01:04:18.259Z,94.04
2022-08-26T01:06:12.378Z,94.14
2022-08-26T01:07:11.473Z,94.24
2022-08-26T01:09:15.579Z,93.56
2022-08-26T01:10:15.576Z,94.14
2022-08-26T01:12:08.781Z,94.04
2022-08-26T01:13:08.967Z,94.82
2022-08-26T01:15:01.844Z,94.43
2022-08-26T01:16:01.856Z,94.92
2022-08-26T01:18:06.015Z,94.72
2022-08-26T01:19:06.047Z,94.62
2022-08-26T01:21:10.136Z,94.62
2022-08-26T01:22:10.139Z,94.72
2022-08-26T01:24:14.213Z,94.62
2022-08-26T01:25:14.245Z,94.72
2022-08-26T01:27:18.325Z,94.53
2022-08-26T01:28:18.357Z,95.20
2022-08-26T01:30:11.537Z,95.11
2022-08-26T01:31:11.636Z,95.11
2022-08-26T01:33:15.677Z,94.72
2022-08-26T01:34:15.682Z,94.72
2022-08-26T01:36:19.800Z,95.59
2022-08-26T01:37:19.793Z,95.11
2022-08-26T01:39:23.872Z,95.68
2022-08-26T01:40:23.973Z,95.30
2022-08-26T01:42:17.082Z,95.30
2022-08-26T01:43:17.118Z,95.20
2022-08-26T01:45:10.219Z,95.11
2022-08-26T01:46:10.249Z,95.30
2022-08-26T01:48:14.331Z,95.16
2022-08-26T01:49:14.326Z,95.40
2022-08-26T01:51:18.415Z,95.20
2022-08-26T01:52:18.447Z,95.01
2022-08-26T01:54:11.934Z,95.59
2022-08-26T01:55:11.659Z,95.88
2022-08-26T01:57:15.740Z,95.59
2022-08-26T01:58:15.772Z,95.93
2022-08-26T02:00:08.982Z,96.22
2022-08-26T02:01:09.796Z,95.88
2022-08-26T02:03:02.178Z,96.41
2022-08-26T02:04:02.200Z,96.22
2022-08-26T02:05:55.378Z,96.12
2022-08-26T02:06:55.412Z,95.88
2022-08-26T02:08:59.526Z,96.22
2022-08-26T02:09:59.531Z,96.08
2022-08-26T02:12:03.640Z,96.22
2022-08-26T02:13:03.696Z,96.46
2022-08-26T02:14:56.658Z,96.31
2022-08-26T02:15:56.696Z,96.31
2022-08-26T02:18:00.734Z,97.04
2022-08-26T02:19:00.769Z,96.84
2022-08-26T02:21:06.678Z,97.09
2022-08-26T02:22:04.871Z,96.99
2022-08-26T02:24:08.958Z,96.70
2022-08-26T02:25:08.989Z,96.89
2022-08-26T02:27:02.196Z,96.51
2022-08-26T02:28:02.207Z,96.61
2022-08-26T02:30:04.265Z,96.51
2022-08-26T02:31:04.353Z,96.70
2022-08-26T02:33:06.584Z,96.89
2022-08-26T02:34:06.395Z,96.89
2022-08-26T02:36:08.458Z,96.41
2022-08-26T02:37:08.488Z,96.89
2022-08-26T02:39:00.654Z,96.70
2022-08-26T02:40:00.713Z,96.89
2022-08-26T02:42:02.747Z,97.19
2022-08-26T02:43:02.837Z,97.67
2022-08-26T02:44:54.795Z,97.57
2022-08-26T02:45:54.791Z,97.67
2022-08-26T02:47:56.859Z,97.28
2022-08-26T02:48:56.893Z,97.57
2022-08-26T02:50:58.946Z,97.57
2022-08-26T02:51:58.982Z,97.47
2022-08-26T02:54:01.033Z,97.47
2022-08-26T02:55:01.065Z,97.57
2022-08-26T02:57:03.172Z,97.57
2022-08-26T02:58:03.171Z,97.67
2022-08-26T03:00:05.253Z,97.67
2022-08-26T03:01:05.398Z,98.44
2022-08-26T03:03:07.512Z,97.67
2022-08-26T03:04:07.348Z,97.77
2022-08-26T03:06:09.406Z,97.57
2022-08-26T03:07:09.439Z,97.67
2022-08-26T03:09:15.970Z,98.05
2022-08-26T03:10:11.546Z,97.77
2022-08-26T03:12:13.621Z,98.54
2022-08-26T03:13:13.625Z,98.15
2022-08-26T03:15:16.515Z,98.83
2022-08-26T03:16:05.704Z,98.63
2022-08-26T03:18:07.689Z,98.92
2022-08-26T03:19:07.765Z,98.83
2022-08-26T03:20:59.909Z,99.21
2022-08-26T03:21:59.941Z,99.02
2022-08-26T03:24:02.050Z,98.92
2022-08-26T03:25:02.085Z,99.11
2022-08-26T03:27:07.231Z,98.73
2022-08-26T03:28:04.179Z,98.92
2022-08-26T03:30:06.241Z,98.73
2022-08-26T03:31:06.315Z,99.60
2022-08-26T03:33:08.516Z,99.98
2022-08-26T03:34:08.363Z,99.69
2022-08-26T03:36:10.457Z,99.31
2022-08-26T03:37:10.456Z,99.40
2022-08-26T03:39:12.601Z,99.79
2022-08-26T03:40:12.581Z,99.79
2022-08-26T03:42:14.593Z,99.74
2022-08-26T03:43:14.623Z,99.50
2022-08-26T03:45:06.604Z,99.79
2022-08-26T03:46:06.677Z,99.69
2022-08-26T03:47:58.801Z,99.55
2022-08-26T03:48:58.831Z,99.69
2022-08-26T03:51:00.915Z,99.99
2022-08-26T03:52:00.917Z,99.40
2022-08-26T03:54:02.987Z,99.40
2022-08-26T03:55:03.011Z,99.21
2022-08-26T03:57:05.177Z,99.74
2022-08-26T03:58:05.114Z,99.84
2022-08-26T04:00:07.175Z,99.69
2022-08-26T04:01:07.207Z,99.60
2022-08-26T04:02:59.446Z,99.79
2022-08-26T04:04:00.407Z,99.21
2022-08-26T04:06:01.471Z,99.31
2022-08-26T04:07:01.501Z,99.93
2022-08-26T04:08:53.678Z,99.79
2022-08-26T04:09:53.710Z,99.69
2022-08-26T04:11:55.767Z,99.60
2022-08-26T04:12:55.801Z,99.99
2022-08-26T04:14:48.827Z,99.16
2022-08-26T04:15:48.923Z,99.50
2022-08-26T04:17:42.015Z,99.69
2022-08-26T04:18:46.617Z,99.99
2022-08-26T04:20:46.128Z,99.99
2022-08-26T04:21:46.163Z,99.99
2022-08-26T04:23:47.686Z,99.99
2022-08-26T04:24:39.376Z,99.99
2022-08-26T04:26:43.705Z,99.99
2022-08-26T04:27:43.484Z,99.65
2022-08-26T04:29:36.822Z,99.99
2022-08-26T04:30:36.826Z,99.65
2022-08-26T04:32:40.900Z,99.99
2022-08-26T04:33:41.716Z,99.99
2022-08-26T04:35:33.919Z,99.99
2022-08-26T04:36:33.953Z,99.99
2022-08-26T04:38:27.133Z,99.99
2022-08-26T04:39:27.654Z,99.99
2022-08-26T04:41:20.417Z,99.99
2022-08-26T04:42:23.311Z,99.99
2022-08-26T04:44:13.631Z,99.40
2022-08-26T04:45:13.662Z,99.69
2022-08-26T04:47:17.740Z,99.69
2022-08-26T04:48:17.772Z,99.98
2022-08-26T04:50:11.128Z,99.69
2022-08-26T04:51:10.995Z,99.11
2022-08-26T04:53:15.063Z,99.69
2022-08-26T04:54:15.095Z,99.99
2022-08-26T04:56:19.210Z,99.99
2022-08-26T04:57:19.203Z,99.60
2022-08-26T04:59:23.290Z,99.98
2022-08-26T05:00:23.314Z,99.98
2022-08-26T05:02:27.387Z,99.99
2022-08-26T05:03:30.309Z,99.99
2022-08-26T05:05:20.478Z,99.99
2022-08-26T05:06:20.509Z,99.99
2022-08-26T05:08:13.692Z,99.99
2022-08-26T05:09:13.722Z,99.99
2022-08-26T05:11:17.842Z,99.99
2022-08-26T05:12:17.837Z,99.99
2022-08-26T05:14:11.015Z,99.99
2022-08-26T05:15:11.046Z,99.99
2022-08-26T05:17:04.231Z,99.99
2022-08-26T05:18:04.262Z,99.98
2022-08-26T05:20:08.350Z,99.99
2022-08-26T05:21:08.382Z,99.98
2022-08-26T05:23:12.467Z,99.99
2022-08-26T05:24:12.500Z,99.98
2022-08-26T05:26:05.555Z,99.79
2022-08-26T05:27:07.479Z,99.98
2022-08-26T05:29:09.650Z,99.50
2022-08-26T05:30:09.681Z,99.40
2022-08-26T05:32:13.738Z,99.79
2022-08-26T05:33:13.772Z,99.79
2022-08-26T05:35:08.948Z,98.92
2022-08-26T05:36:06.783Z,98.58
2022-08-26T05:38:12.861Z,99.11
2022-08-26T05:39:10.909Z,98.63
2022-08-26T05:41:14.937Z,98.88
2022-08-26T05:42:14.969Z,98.97
2022-08-26T05:44:19.030Z,98.88
2022-08-26T05:45:19.061Z,99.07
2022-08-26T05:47:23.129Z,98.97
2022-08-26T05:48:24.341Z,99.07
2022-08-26T05:50:27.216Z,98.68
2022-08-26T05:51:27.249Z,98.68
2022-08-26T05:53:31.339Z,98.20
2022-08-26T05:54:31.346Z,98.00
2022-08-26T05:56:35.439Z,98.10
2022-08-26T05:57:40.396Z,98.20
2022-08-26T05:59:39.498Z,97.72
2022-08-26T06:00:39.530Z,97.96
2022-08-26T06:02:43.659Z,97.81
2022-08-26T06:03:43.628Z,97.42
2022-08-26T06:05:39.276Z,97.77
2022-08-26T06:06:36.639Z,97.57
2022-08-26T06:08:40.733Z,97.09
2022-08-26T06:09:40.736Z,96.80
2022-08-26T06:11:44.825Z,96.80
2022-08-26T06:12:44.828Z,96.70
2022-08-26T06:14:49.047Z,96.61
2022-08-26T06:15:48.992Z,97.09
2022-08-26T06:17:52.985Z,96.51
2022-08-26T06:18:53.019Z,96.99
2022-08-26T06:20:58.391Z,96.99
2022-08-26T06:21:57.166Z,96.99
2022-08-26T06:24:01.225Z,96.94
2022-08-26T06:25:01.258Z,97.14
2022-08-26T06:27:05.352Z,96.94
2022-08-26T06:28:05.356Z,97.14
2022-08-26T06:30:09.419Z,96.56
2022-08-26T06:31:09.493Z,96.56
2022-08-26T06:33:13.510Z,96.46
2022-08-26T06:34:13.544Z,96.65
2022-08-26T06:36:18.610Z,96.56
2022-08-26T06:37:17.636Z,96.46
2022-08-26T06:39:21.705Z,96.17
2022-08-26T06:40:21.780Z,96.26
2022-08-26T06:42:25.838Z,96.22
2022-08-26T06:43:25.833Z,96.51
2022-08-26T06:45:18.826Z,96.41
2022-08-26T06:46:18.883Z,96.26
2022-08-26T06:48:22.905Z,95.54
2022-08-26T06:49:26.817Z,96.12
2022-08-26T06:51:27.004Z,95.25
2022-08-26T06:52:27.030Z,96.12
2022-08-26T06:54:31.093Z,95.25
2022-08-26T06:55:31.124Z,95.34
2022-08-26T06:57:35.216Z,95.44
2022-08-26T06:58:35.220Z,95.49
2022-08-26T07:00:39.280Z,95.29
2022-08-26T07:01:39.392Z,94.91
2022-08-26T07:03:43.375Z,95.49
2022-08-26T07:04:43.413Z,94.62
2022-08-26T07:06:47.474Z,94.81
2022-08-26T07:07:47.508Z,95.01
2022-08-26T07:09:52.382Z,94.13
2022-08-26T07:10:51.602Z,94.33
2022-08-26T07:12:55.664Z,93.89
2022-08-26T07:13:55.698Z,93.89
2022-08-26T07:16:03.122Z,93.99
2022-08-26T07:16:59.796Z,94.09
2022-08-26T07:17:59.835Z,93.51
2022-08-26T07:18:59.874Z,93.51
2022-08-26T07:19:59.912Z,93.60
2022-08-26T07:20:59.952Z,93.60
2022-08-26T07:21:59.991Z,93.16
2022-08-26T07:23:00.028Z,92.77
2022-08-26T07:24:01.491Z,93.07
2022-08-26T07:25:00.131Z,92.00
2022-08-26T07:26:00.147Z,91.81
2022-08-26T07:27:00.191Z,91.81
2022-08-26T07:28:00.226Z,91.42
2022-08-26T07:29:00.267Z,91.71
2022-08-26T07:30:00.304Z,92.00
2022-08-26T07:31:00.409Z,92.05
2022-08-26T07:32:00.386Z,91.08
2022-08-26T07:33:00.426Z,91.37
2022-08-26T07:34:00.462Z,90.59
2022-08-26T07:35:00.503Z,91.27
2022-08-26T07:36:00.543Z,90.50
2022-08-26T07:37:00.585Z,90.20
2022-08-26T07:38:00.620Z,90.01
2022-08-26T07:39:00.661Z,90.01
2022-08-26T07:40:00.728Z,90.11
2022-08-26T07:41:00.739Z,89.96
2022-08-26T07:42:00.780Z,89.96
2022-08-26T07:43:01.004Z,89.37
2022-08-26T07:44:00.857Z,88.99
2022-08-26T07:45:00.899Z,88.60
2022-08-26T07:46:00.938Z,88.79
2022-08-26T07:47:00.978Z,89.09
2022-08-26T07:48:01.018Z,89.03
2022-08-26T07:49:01.109Z,89.03
2022-08-26T07:50:01.099Z,88.93
2022-08-26T07:51:01.136Z,88.16
2022-08-26T07:52:01.180Z,88.16
2022-08-26T07:53:01.306Z,88.26
2022-08-26T07:54:01.257Z,88.16
2022-08-26T07:55:01.298Z,87.82
2022-08-26T07:56:01.338Z,87.82
2022-08-26T07:57:01.377Z,87.72
2022-08-26T07:58:01.417Z,87.52
2022-08-26T07:59:01.459Z,87.04
2022-08-26T08:00:01.500Z,86.36
2022-08-26T08:01:01.617Z,86.60
2022-08-26T08:02:01.677Z,86.16
2022-08-26T08:03:01.616Z,86.50
2022-08-26T08:04:01.655Z,85.43
2022-08-26T08:05:01.773Z,85.33
2022-08-26T08:06:01.740Z,85.33
2022-08-26T08:07:01.777Z,85.24
2022-08-26T08:08:27.246Z,84.66
2022-08-26T08:09:01.860Z,85.04
2022-08-26T08:10:03.779Z,84.60
2022-08-26T08:11:01.938Z,84.21
2022-08-26T08:12:01.978Z,84.21
2022-08-26T08:13:02.055Z,84.31
2022-08-26T08:14:02.060Z,84.01
2022-08-26T08:15:02.105Z,83.92
2022-08-26T08:16:02.138Z,82.79
2022-08-26T08:17:02.328Z,82.60
2022-08-26T08:18:02.222Z,82.40
2022-08-26T08:19:02.263Z,82.02
2022-08-26T08:20:02.299Z,82.50
2022-08-26T08:21:21.235Z,82.40
2022-08-26T08:22:02.399Z,81.82
2022-08-26T08:23:02.423Z,81.67
2022-08-26T08:24:02.474Z,81.57
2022-08-26T08:25:02.883Z,81.18
2022-08-26T08:26:02.546Z,80.89
2022-08-26T08:27:02.586Z,80.89
2022-08-26T08:28:02.678Z,81.09
2022-08-26T08:29:02.668Z,80.69
2022-08-26T08:30:02.707Z,80.60
2022-08-26T08:31:02.786Z,80.44
2022-08-26T08:32:02.844Z,80.05
2022-08-26T08:33:02.829Z,80.35
2022-08-26T08:34:02.871Z,79.66
2022-08-26T08:35:02.983Z,79.28
2022-08-26T08:36:02.951Z,79.47
2022-08-26T08:37:04.373Z,79.18
2022-08-26T08:38:06.836Z,78.99
2022-08-26T08:39:03.075Z,78.40
2022-08-26T08:40:03.166Z,79.41
2022-08-26T08:41:05.511Z,78.15
2022-08-26T08:42:03.198Z,78.53
2022-08-26T08:43:03.238Z,77.27
2022-08-26T08:44:03.278Z,77.08
2022-08-26T08:45:03.322Z,76.98
2022-08-26T08:46:03.426Z,76.98
2022-08-26T08:47:03.402Z,76.10
2022-08-26T08:48:03.443Z,77.31
2022-08-26T08:49:03.487Z,76.04
2022-08-26T08:50:03.526Z,75.85
2022-08-26T08:51:03.567Z,75.46
2022-08-26T08:52:04.250Z,75.56
2022-08-26T08:53:03.652Z,74.97
2022-08-26T08:54:03.690Z,75.95
2022-08-26T08:55:03.735Z,75.95
2022-08-26T08:56:03.775Z,75.65
2022-08-26T08:57:03.815Z,75.07
2022-08-26T08:58:03.857Z,75.26
2022-08-26T08:59:03.900Z,74.97
2022-08-26T09:00:03.938Z,74.29
2022-08-26T09:01:04.017Z,74.58
2022-08-26T09:02:04.037Z,75.16
2022-08-26T09:03:04.062Z,75.20
2022-08-26T09:04:04.103Z,74.82
2022-08-26T09:05:04.147Z,74.23
2022-08-26T09:06:04.188Z,74.52
2022-08-26T09:07:04.231Z,73.25
2022-08-26T09:08:04.327Z,73.84
2022-08-26T09:09:04.313Z,73.94
2022-08-26T09:10:04.356Z,73.35
2022-08-26T09:11:04.395Z,73.84
2022-08-26T09:12:04.437Z,73.45
2022-08-26T09:13:04.481Z,73.65
2022-08-26T09:14:04.520Z,73.16
2022-08-26T09:15:04.562Z,73.74
2022-08-26T09:16:04.624Z,73.68
2022-08-26T09:17:04.688Z,73.78
2022-08-26T09:18:06.783Z,73.88
2022-08-26T09:19:04.732Z,73.97
2022-08-26T09:20:04.770Z,73.97
2022-08-26T09:21:04.813Z,73.58
2022-08-26T09:22:08.731Z,74.40
2022-08-26T09:23:04.913Z,74.40
2022-08-26T09:24:04.939Z,73.43
2022-08-26T09:25:04.999Z,73.62
2022-08-26T09:26:05.022Z,73.43
2022-08-26T09:27:05.066Z,73.17
2022-08-26T09:28:05.105Z,72.78
2022-08-26T09:29:05.150Z,72.97
2022-08-26T09:30:05.189Z,72.97
2022-08-26T09:31:09.186Z,72.03
2022-08-26T09:32:05.273Z,72.23
2022-08-26T09:33:10.363Z,71.94
2022-08-26T09:34:05.359Z,71.35
2022-08-26T09:35:06.274Z,70.37
2022-08-26T09:36:05.449Z,70.31
2022-08-26T09:37:05.485Z,69.63
2022-08-26T09:38:07.006Z,70.08
2022-08-26T09:39:05.571Z,69.79
2022-08-26T09:40:05.651Z,70.37
2022-08-26T09:41:05.655Z,68.71
2022-08-26T09:42:05.695Z,69.40
2022-08-26T09:43:05.737Z,69.53
2022-08-26T09:44:05.779Z,69.30
2022-08-26T09:45:05.823Z,68.95
2022-08-26T09:46:05.927Z,69.92
2022-08-26T09:47:05.907Z,70.02
2022-08-26T09:48:05.999Z,70.02
2022-08-26T09:49:05.995Z,70.51
2022-08-26T09:50:09.945Z,69.63
2022-08-26T09:51:06.076Z,69.14
2022-08-26T09:52:06.117Z,69.53
2022-08-26T09:53:10.015Z,69.24
2022-08-26T09:54:08.020Z,68.95
2022-08-26T09:55:06.247Z,69.04
2022-08-26T09:56:06.289Z,68.26
2022-08-26T09:57:06.332Z,67.87
2022-08-26T09:58:07.959Z,67.77
2022-08-26T09:59:06.451Z,68.26
2022-08-26T10:00:06.460Z,68.07
2022-08-26T10:01:06.524Z,68.16
2022-08-26T10:02:06.545Z,68.19
2022-08-26T10:03:06.587Z,68.29
2022-08-26T10:04:06.729Z,67.12
2022-08-26T10:05:09.620Z,66.63
2022-08-26T10:06:06.714Z,66.83
2022-08-26T10:07:06.760Z,66.73
2022-08-26T10:08:06.802Z,65.56
2022-08-26T10:09:09.743Z,65.26
2022-08-26T10:10:06.887Z,65.69
2022-08-26T10:11:06.930Z,66.66
2022-08-26T10:12:06.970Z,65.88
2022-08-26T10:13:07.214Z,65.78
2022-08-26T10:14:07.056Z,65.10
2022-08-26T10:15:07.101Z,64.90
2022-08-26T10:16:07.140Z,62.39
2022-08-26T10:17:07.237Z,63.57
2022-08-26T10:18:07.445Z,62.19
2022-08-26T10:19:07.271Z,62.52
2022-08-26T10:20:22.905Z,62.92
2022-08-26T10:21:07.405Z,62.42
2022-08-26T10:22:07.399Z,61.74
2022-08-26T10:23:07.591Z,61.64
2022-08-26T10:24:07.526Z,61.18
2022-08-26T10:25:07.531Z,62.26
2022-08-26T10:26:07.572Z,62.55
2022-08-26T10:27:07.617Z,61.87
2022-08-26T10:28:07.822Z,61.87
2022-08-26T10:29:07.701Z,61.21
2022-08-26T10:30:07.746Z,61.70
2022-08-26T10:31:07.800Z,61.99
2022-08-26T10:32:07.860Z,61.05
2022-08-26T10:33:08.079Z,61.24
2022-08-26T10:34:07.920Z,60.26
2022-08-26T10:35:07.963Z,59.58
2022-08-26T10:36:08.004Z,59.31
2022-08-26T10:37:14.932Z,59.01
2022-08-26T10:38:08.329Z,57.64
2022-08-26T10:39:08.136Z,58.23
2022-08-26T10:40:08.228Z,58.14
2022-08-26T10:41:09.975Z,59.21
2022-08-26T10:42:08.266Z,58.23
2022-08-26T10:43:11.485Z,57.93
2022-08-26T10:44:08.355Z,57.38
2022-08-26T10:45:12.000Z,57.25
2022-08-26T10:46:08.498Z,56.59
2022-08-26T10:47:08.487Z,56.69
2022-08-26T10:48:08.582Z,56.17
2022-08-26T10:49:08.575Z,56.07
2022-08-26T10:50:08.618Z,56.07
2022-08-26T10:51:08.752Z,56.57
2022-08-26T10:52:16.360Z,56.37
2022-08-26T10:53:08.834Z,56.93
2022-08-26T10:54:08.792Z,57.64
2022-08-26T10:55:08.837Z,56.76
2022-08-26T10:56:15.841Z,56.67
2022-08-26T10:57:09.781Z,57.42
2022-08-26T10:58:09.186Z,57.84
2022-08-26T10:59:12.213Z,57.93
2022-08-26T11:00:09.056Z,57.54
2022-08-26T11:01:10.464Z,57.03
2022-08-26T11:02:09.144Z,58.04
2022-08-26T11:03:21.696Z,58.53
2022-08-26T11:04:09.279Z,57.91
2022-08-26T11:05:09.278Z,58.50
2022-08-26T11:06:09.320Z,58.14
2022-08-26T11:07:09.364Z,59.11
2022-08-26T11:08:09.593Z,59.11
2022-08-26T11:09:09.456Z,59.01
2022-08-26T11:10:09.497Z,58.53
2022-08-26T11:11:09.541Z,59.11
2022-08-26T11:12:10.312Z,58.53
2022-08-26T11:13:09.788Z,58.04
2022-08-26T11:14:09.675Z,57.81
2022-08-26T11:15:09.719Z,58.20
2022-08-26T11:16:09.817Z,58.50
2022-08-26T11:17:09.806Z,58.40
2022-08-26T11:18:10.025Z,57.39
2022-08-26T11:19:09.894Z,59.16
2022-08-26T11:20:13.624Z,58.57
2022-08-26T11:21:10.179Z,59.94
2022-08-26T11:22:10.025Z,59.16
2022-08-26T11:23:10.069Z,59.06
2022-08-26T11:24:10.114Z,58.25
2022-08-26T11:25:11.431Z,59.22
2022-08-26T11:26:35.891Z,59.49
2022-08-26T11:28:03.465Z,60.27
2022-08-26T11:29:03.442Z,60.66
2022-08-26T11:31:07.566Z,60.76
2022-08-26T11:32:07.547Z,61.15
2022-08-26T11:34:11.654Z,60.93
2022-08-26T11:35:11.693Z,61.51
2022-08-26T11:37:15.798Z,61.80
2022-08-26T11:38:15.812Z,61.22
2022-08-26T11:40:19.923Z,61.29
2022-08-26T11:41:19.935Z,61.38
2022-08-26T11:43:24.037Z,60.89
2022-08-26T11:44:24.061Z,60.67
2022-08-26T11:46:17.153Z,61.84
2022-08-26T11:47:17.099Z,62.43
2022-08-26T11:49:21.182Z,61.65
2022-08-26T11:50:21.219Z,61.72
2022-08-26T11:52:25.345Z,59.38
2022-08-26T11:53:25.355Z,59.15
2022-08-26T11:55:19.206Z,57.75
2022-08-26T11:56:18.384Z,56.56
2022-08-26T11:58:22.471Z,57.60
2022-08-26T11:59:22.537Z,57.76
2022-08-26T12:01:15.697Z,59.78
2022-08-26T12:02:15.732Z,60.46
2022-08-26T12:04:19.964Z,60.66
2022-08-26T12:05:19.847Z,61.24
2022-08-26T12:07:24.497Z,61.80
2022-08-26T12:08:23.976Z,62.48
2022-08-26T12:10:17.191Z,63.16
2022-08-26T12:11:17.198Z,63.26
2022-08-26T12:13:21.317Z,63.52
2022-08-26T12:14:21.314Z,63.71
2022-08-26T12:16:25.513Z,63.90
2022-08-26T12:17:25.430Z,64.75
2022-08-26T12:19:33.010Z,64.65
2022-08-26T12:20:29.570Z,64.95
2022-08-26T12:22:33.659Z,65.14
2022-08-26T12:23:33.693Z,65.92
2022-08-26T12:25:26.725Z,67.05
2022-08-26T12:26:26.729Z,67.50
2022-08-26T12:28:30.811Z,69.25
2022-08-26T12:29:30.846Z,70.22
2022-08-26T12:31:35.008Z,70.97
2022-08-26T12:32:34.972Z,72.03
2022-08-26T12:34:27.151Z,73.20
2022-08-26T12:35:27.185Z,73.49
2022-08-26T12:37:30.397Z,74.85
2022-08-26T12:38:30.434Z,75.53
2022-08-26T12:40:32.654Z,75.49
2022-08-26T12:41:32.611Z,75.49
2022-08-26T12:43:25.797Z,75.98
2022-08-26T12:44:25.835Z,75.68
2022-08-26T12:46:29.923Z,76.32
2022-08-26T12:47:32.760Z,76.04
2022-08-26T12:49:23.149Z,76.14
2022-08-26T12:50:23.181Z,76.62
2022-08-26T12:52:16.370Z,77.29
2022-08-26T12:53:16.411Z,78.13
2022-08-26T12:55:09.406Z,78.23
2022-08-26T12:56:09.442Z,78.23
2022-08-26T12:58:13.581Z,79.97
2022-08-26T12:59:14.705Z,80.26
2022-08-26T13:01:07.013Z,80.65
2022-08-26T13:02:06.997Z,80.55
2022-08-26T13:04:10.870Z,81.62
2022-08-26T13:05:10.904Z,82.01
2022-08-26T13:07:04.093Z,81.82
2022-08-26T13:08:04.124Z,81.72
2022-08-26T13:09:57.382Z,82.78
2022-08-26T13:10:57.387Z,83.65
2022-08-26T13:13:01.591Z,83.47
2022-08-26T13:14:01.818Z,83.65
2022-08-26T13:15:54.868Z,83.47
2022-08-26T13:16:54.822Z,84.72
2022-08-26T13:18:48.005Z,84.88
2022-08-26T13:19:48.042Z,84.68
2022-08-26T13:20:48.098Z,85.17
2022-08-26T13:21:48.120Z,84.39
2022-08-26T13:22:48.161Z,85.36
2022-08-26T13:23:48.197Z,85.07
2022-08-26T13:24:48.237Z,85.85
2022-08-26T13:25:48.277Z,86.04
2022-08-26T13:26:48.319Z,85.94
2022-08-26T13:27:48.359Z,86.33
2022-08-26T13:28:48.638Z,86.33
2022-08-26T13:29:48.440Z,86.13
2022-08-26T13:30:48.477Z,86.82
2022-08-26T13:31:48.577Z,87.78
2022-08-26T13:32:48.561Z,87.49
2022-08-26T13:33:48.598Z,87.26
2022-08-26T13:34:51.264Z,87.30
2022-08-26T13:35:48.678Z,87.10
2022-08-26T13:36:48.719Z,87.59
2022-08-26T13:37:48.758Z,87.88
2022-08-26T13:40:34.607Z,88.61
2022-08-26T13:41:31.626Z,89.00
2022-08-26T13:43:35.715Z,88.71
2022-08-26T13:44:35.751Z,88.90
2022-08-26T13:46:39.876Z,88.90
2022-08-26T13:47:39.851Z,88.71
2022-08-26T13:49:43.930Z,89.29
2022-08-26T13:50:43.964Z,88.81
2022-08-26T13:52:48.027Z,89.48
2022-08-26T13:53:48.064Z,89.58
2022-08-26T13:55:41.060Z,89.58
2022-08-26T13:56:41.090Z,89.39
2022-08-26T13:58:45.189Z,89.00
2022-08-26T13:59:45.194Z,89.05
2022-08-26T14:01:38.473Z,88.95
2022-08-26T14:02:38.477Z,88.85
2022-08-26T14:04:42.547Z,89.73
2022-08-26T14:05:42.577Z,88.85
2022-08-26T14:07:46.682Z,89.44
2022-08-26T14:08:46.711Z,89.53
2022-08-26T14:10:50.780Z,89.83
2022-08-26T14:11:54.335Z,89.53
2022-08-26T14:13:54.926Z,89.63
2022-08-26T14:14:54.933Z,89.92
2022-08-26T14:17:00.400Z,89.34
2022-08-26T14:17:59.023Z,88.85
2022-08-26T14:19:52.232Z,89.88
2022-08-26T14:20:52.246Z,90.36
2022-08-26T14:23:03.536Z,90.07
2022-08-26T14:23:45.462Z,90.84
2022-08-26T14:25:38.465Z,91.33
2022-08-26T14:26:38.501Z,91.82
2022-08-26T14:28:42.611Z,92.74
2022-08-26T14:29:42.608Z,92.83
2022-08-26T14:31:35.846Z,93.32
2022-08-26T14:32:35.822Z,93.51
2022-08-26T14:34:39.892Z,95.54
2022-08-26T14:35:39.935Z,96.17
2022-08-26T14:37:43.994Z,97.23
2022-08-26T14:38:44.024Z,97.57
2022-08-26T14:40:48.124Z,97.77
2022-08-26T14:41:53.828Z,97.67
2022-08-26T14:43:41.305Z,97.96
2022-08-26T14:44:41.336Z,98.44
2022-08-26T14:46:34.633Z,97.77
2022-08-26T14:47:34.549Z,97.96
2022-08-26T14:49:38.624Z,97.86
2022-08-26T14:50:38.657Z,98.35
2022-08-26T14:52:42.732Z,98.44
2022-08-26T14:53:42.762Z,98.54
2022-08-26T14:54:42.803Z,99.11
2022-08-26T14:55:42.842Z,98.83
2022-08-26T14:56:42.880Z,98.54
2022-08-26T14:57:42.926Z,98.54
2022-08-26T14:58:42.954Z,96.03
2022-08-26T14:59:42.996Z,95.15
2022-08-26T15:00:43.038Z,95.45
2022-08-26T15:01:43.227Z,95.45
2022-08-26T15:02:43.306Z,95.78
2022-08-26T15:03:43.175Z,96.41
2022-08-26T15:04:43.193Z,96.51
2022-08-26T15:05:46.092Z,96.84
2022-08-26T15:06:43.270Z,96.89
2022-08-26T15:07:43.311Z,95.68
2022-08-26T15:08:43.345Z,96.36
2022-08-26T15:09:43.386Z,96.46
2022-08-26T15:10:43.425Z,96.46
2022-08-26T15:11:43.461Z,96.08
2022-08-26T15:12:43.502Z,96.36
2022-08-26T15:13:43.542Z,96.08
2022-08-26T15:14:43.579Z,97.04
2022-08-26T15:15:43.641Z,96.56
2022-08-26T15:16:43.658Z,96.94
2022-08-26T15:17:43.696Z,96.75
2022-08-26T15:18:43.733Z,97.52
2022-08-26T15:19:43.775Z,97.24
2022-08-26T15:20:43.811Z,97.62
2022-08-26T15:21:43.855Z,98.49
2022-08-26T15:22:43.889Z,98.30
2022-08-26T15:23:47.746Z,98.39
2022-08-26T15:24:43.965Z,98.30
2022-08-26T15:25:44.009Z,97.91
2022-08-26T15:26:44.042Z,97.33
2022-08-26T15:27:44.083Z,97.33
2022-08-26T15:28:44.124Z,96.94
2022-08-26T15:29:44.165Z,97.33
2022-08-26T15:30:44.201Z,97.67
2022-08-26T15:31:44.265Z,97.42
2022-08-26T15:32:44.278Z,97.81
2022-08-26T15:33:44.317Z,97.38
2022-08-26T15:34:44.356Z,97.72
2022-08-26T15:35:44.394Z,98.20
2022-08-26T15:36:44.432Z,99.16
2022-08-26T15:37:44.513Z,98.83
2022-08-26T15:38:44.509Z,98.88
2022-08-26T15:39:44.549Z,98.88
2022-08-26T15:40:44.589Z,98.68
2022-08-26T15:41:44.628Z,98.68
2022-08-26T15:42:44.665Z,99.26
2022-08-26T15:43:44.706Z,99.65
2022-08-26T15:44:44.746Z,99.55
2022-08-26T15:45:44.782Z,99.74
2022-08-26T15:46:44.896Z,99.69
2022-08-26T15:47:55.414Z,99.79
2022-08-26T15:48:44.902Z,99.41
2022-08-26T15:49:44.937Z,99.99
2022-08-26T15:50:44.975Z,99.99
2022-08-26T15:51:45.427Z,99.99
2022-08-26T15:52:45.054Z,99.99
2022-08-26T15:53:45.095Z,99.99
2022-08-26T15:54:45.132Z,99.99
2022-08-26T15:55:45.175Z,99.99
2022-08-26T15:56:45.210Z,99.99
2022-08-26T15:57:45.248Z,99.99
2022-08-26T15:58:45.286Z,99.99
2022-08-26T15:59:45.326Z,99.99
2022-08-26T16:00:45.363Z,99.99
2022-08-26T16:01:45.445Z,99.99
2022-08-26T16:02:45.442Z,99.99
2022-08-26T16:03:45.480Z,99.99
2022-08-26T16:04:45.538Z,99.99
2022-08-26T16:05:45.602Z,99.99
2022-08-26T16:06:45.595Z,99.99
2022-08-26T16:07:45.636Z,99.99
2022-08-26T16:08:45.676Z,99.99
2022-08-26T16:09:45.715Z,99.99
2022-08-26T16:10:50.035Z,99.99
2022-08-26T16:11:45.793Z,99.99
2022-08-26T16:12:45.830Z,99.99
2022-08-26T16:13:45.874Z,99.55
2022-08-26T16:14:45.908Z,99.74
2022-08-26T16:15:46.013Z,99.99
2022-08-26T16:16:45.986Z,99.99
2022-08-26T16:17:46.025Z,99.99
2022-08-26T16:18:46.065Z,99.84
2022-08-26T16:19:46.102Z,99.84
2022-08-26T16:20:55.278Z,99.94
2022-08-26T16:21:46.179Z,99.84